createdAt,value
2019-04-23T00:02:09.027Z,3.70
2019-04-23T00:04:28.663Z,3.00
2019-04-23T00:07:15.849Z,2.72
2019-04-23T00:09:40.991Z,2.60
2019-04-23T00:12:12.006Z,2.50
2019-04-23T00:14:47.540Z,2.93
2019-04-23T00:17:17.899Z,2.60
2019-04-23T00:19:47.927Z,2.77
2019-04-23T00:22:13.873Z,2.63
2019-04-23T00:30:03.990Z,2.03
2019-04-23T00:32:28.756Z,2.25
2019-04-23T00:34:54.657Z,2.80
2019-04-23T00:37:31.329Z,2.30
2019-04-23T00:42:35.032Z,2.35
2019-04-23T00:44:56.282Z,2.10
2019-04-23T00:47:33.312Z,2.15
2019-04-23T00:50:07.415Z,2.17
2019-04-23T00:55:12.759Z,2.45
2019-04-23T00:57:38.840Z,1.78
2019-04-23T01:00:14.174Z,2.10
2019-04-23T01:02:37.376Z,1.97
2019-04-23T01:05:10.953Z,1.60
2019-04-23T01:07:40.050Z,2.00
2019-04-23T01:10:25.557Z,2.30
2019-04-23T01:13:00.052Z,1.87
2019-04-23T01:15:25.749Z,3.37
2019-04-23T01:20:37.077Z,2.60
2019-04-23T01:22:50.889Z,2.02
2019-04-23T01:25:34.363Z,1.63
2019-04-23T01:28:28.291Z,2.07
2019-04-23T01:31:01.513Z,1.63
2019-04-23T01:33:33.063Z,1.92
2019-04-23T01:36:12.472Z,2.07
2019-04-23T01:38:37.527Z,1.67
2019-04-23T01:40:58.396Z,1.55
2019-04-23T01:43:30.789Z,1.62
2019-04-23T01:46:02.740Z,1.40
2019-04-23T01:48:32.863Z,1.03
2019-04-23T01:51:09.649Z,1.60
2019-04-23T01:53:45.569Z,1.70
2019-04-23T01:56:06.229Z,1.57
2019-04-23T02:01:21.472Z,1.40
2019-04-23T02:03:34.731Z,1.70
2019-04-23T02:06:10.158Z,1.60
2019-04-23T02:08:32.252Z,1.54
2019-04-23T02:11:09.716Z,1.50
2019-04-23T02:16:24.746Z,1.85
2019-04-23T02:18:38.819Z,1.65
2019-04-23T02:21:10.581Z,1.50
2019-04-23T02:23:42.402Z,1.70
2019-04-23T02:31:35.360Z,1.45
2019-04-23T02:36:31.688Z,1.73
2019-04-23T02:41:26.656Z,1.30
2019-04-23T02:44:04.619Z,1.80
2019-04-23T02:46:22.745Z,1.37
2019-04-23T02:48:56.733Z,1.40
2019-04-23T02:51:39.643Z,1.70
2019-04-23T02:59:16.382Z,1.90
2019-04-23T03:06:50.060Z,2.60
2019-04-23T03:11:43.771Z,2.20
2019-04-23T03:14:09.411Z,1.93
2019-04-23T03:19:25.499Z,2.08
2019-04-23T03:22:01.475Z,2.40
2019-04-23T03:24:59.940Z,2.00
2019-04-23T03:27:17.077Z,1.80
2019-04-23T03:29:51.223Z,1.95
2019-04-23T03:37:35.626Z,1.63
2019-04-23T03:45:00.257Z,2.20
2019-04-23T03:47:26.766Z,1.90
2019-04-23T03:50:05.292Z,1.80
2019-04-23T03:52:27.649Z,1.77
2019-04-23T03:54:46.219Z,1.70
2019-04-23T03:57:30.650Z,1.77
2019-04-23T03:59:54.769Z,1.70
2019-04-23T04:04:45.194Z,1.30
2019-04-23T04:15:04.271Z,1.73
2019-04-23T04:19:56.551Z,1.73
2019-04-23T04:22:37.380Z,1.57
2019-04-23T04:25:00.935Z,1.60
2019-04-23T04:27:43.332Z,1.60
2019-04-23T04:30:03.959Z,1.40
2019-04-23T04:35:20.966Z,1.40
2019-04-23T04:42:33.284Z,1.57
2019-04-23T04:45:30.244Z,1.50
2019-04-23T04:52:48.952Z,1.50
2019-04-23T04:55:33.920Z,2.27
2019-04-23T05:00:15.223Z,1.43
2019-04-23T05:05:28.981Z,1.13
2019-04-23T05:07:39.900Z,1.77
2019-04-23T05:12:40.985Z,1.40
2019-04-23T05:15:07.424Z,1.30
2019-04-23T05:18:11.729Z,1.60
2019-04-23T05:23:06.063Z,1.40
2019-04-23T05:25:24.275Z,1.77
2019-04-23T05:30:38.407Z,1.90
2019-04-23T05:36:02.651Z,1.27
2019-04-23T05:38:18.555Z,1.53
2019-04-23T05:40:44.977Z,1.50
2019-04-23T05:43:11.924Z,1.73
2019-04-23T05:45:44.645Z,1.77
2019-04-23T05:50:52.695Z,0.97
2019-04-23T05:53:23.042Z,1.40
2019-04-23T05:55:51.600Z,1.05
2019-04-23T06:00:54.519Z,1.43
2019-04-23T06:05:58.264Z,1.63
2019-04-23T06:08:25.259Z,1.17
2019-04-23T06:11:00.916Z,1.20
2019-04-23T06:13:26.102Z,1.73
2019-04-23T06:15:50.415Z,1.20
2019-04-23T06:18:34.207Z,1.60
2019-04-23T06:21:03.071Z,1.37
2019-04-23T06:23:40.076Z,1.50
2019-04-23T06:26:08.516Z,1.63
2019-04-23T06:28:27.611Z,1.50
2019-04-23T06:31:02.958Z,1.40
2019-04-23T06:38:40.790Z,2.43
2019-04-23T06:41:05.754Z,2.13
2019-04-23T06:43:42.023Z,2.20
2019-04-23T06:46:12.072Z,2.00
2019-04-23T06:48:44.878Z,2.17
2019-04-23T06:51:21.727Z,1.53
2019-04-23T06:53:43.721Z,1.55
2019-04-23T06:56:21.090Z,1.60
2019-04-23T06:58:43.337Z,1.80
2019-04-23T07:01:13.279Z,1.70
2019-04-23T07:03:51.824Z,2.20
2019-04-23T07:09:05.163Z,1.40
2019-04-23T07:11:29.069Z,1.57
2019-04-23T07:16:17.661Z,2.40
2019-04-23T07:18:47.031Z,2.43
2019-04-23T07:23:58.971Z,2.37
2019-04-23T07:26:30.378Z,1.70
2019-04-23T07:28:54.662Z,1.80
2019-04-23T07:31:26.581Z,2.30
2019-04-23T07:33:57.889Z,2.30
2019-04-23T07:36:30.976Z,1.87
2019-04-23T07:39:01.585Z,1.40
2019-04-23T07:41:56.357Z,1.63
2019-04-23T07:46:58.293Z,1.32
2019-04-23T07:49:15.094Z,1.43
2019-04-23T07:51:55.212Z,1.90
2019-04-23T07:54:22.852Z,1.80
2019-04-23T07:56:58.583Z,2.23
2019-04-23T07:59:31.428Z,1.70
2019-04-23T08:01:49.227Z,2.00
2019-04-23T08:04:25.060Z,2.05
2019-04-23T08:06:56.023Z,2.40
2019-04-23T08:09:28.095Z,2.00
2019-04-23T08:11:58.881Z,2.42
2019-04-23T08:14:15.370Z,2.40
2019-04-23T08:16:56.179Z,2.27
2019-04-23T08:19:36.907Z,2.40
2019-04-23T08:22:04.624Z,3.10
2019-04-23T08:24:50.722Z,2.50
2019-04-23T08:27:22.499Z,2.47
2019-04-23T08:29:47.731Z,3.03
2019-04-23T08:32:19.327Z,2.50
2019-04-23T08:34:58.424Z,3.00
2019-04-23T08:37:36.400Z,2.90
2019-04-23T08:39:52.146Z,3.00
2019-04-23T08:42:36.429Z,3.27
2019-04-23T08:45:31.312Z,3.40
2019-04-23T08:48:01.197Z,3.70
2019-04-23T08:50:27.476Z,3.85
2019-04-23T08:53:07.017Z,3.92
2019-04-23T08:55:32.653Z,3.10
2019-04-23T08:57:56.383Z,3.17
2019-04-23T09:00:32.907Z,3.00
2019-04-23T09:03:04.892Z,2.75
2019-04-23T09:08:08.285Z,3.10
2019-04-23T09:13:29.597Z,3.80
2019-04-23T09:15:44.962Z,3.47
2019-04-23T09:18:09.260Z,2.47
2019-04-23T09:20:31.264Z,3.20
2019-04-23T09:23:13.543Z,3.33
2019-04-23T09:25:47.797Z,3.30
2019-04-23T09:28:24.399Z,4.65
2019-04-23T09:30:49.705Z,3.37
2019-04-23T09:33:32.487Z,3.37
2019-04-23T09:36:13.623Z,2.90
2019-04-23T09:38:46.860Z,3.27
2019-04-23T09:44:22.309Z,3.33
2019-04-23T09:46:38.071Z,3.30
2019-04-23T09:51:45.232Z,3.15
2019-04-23T09:54:09.157Z,3.17
2019-04-23T09:56:44.609Z,2.90
2019-04-23T09:59:17.405Z,3.35
2019-04-23T10:01:52.868Z,2.64
2019-04-23T10:03:57.599Z,3.22
2019-04-23T10:06:22.654Z,4.07
2019-04-23T10:08:52.002Z,3.10
2019-04-23T10:11:19.570Z,3.05
2019-04-23T10:13:50.366Z,3.25
2019-04-23T10:16:22.010Z,3.60
2019-04-23T10:18:51.019Z,2.60
2019-04-23T10:21:21.352Z,3.33
2019-04-23T10:23:51.674Z,3.55
2019-04-23T10:26:21.864Z,3.37
2019-04-23T10:29:00.143Z,2.77
2019-04-23T10:31:29.213Z,4.03
2019-04-23T10:33:58.162Z,3.42
2019-04-23T10:36:28.271Z,4.17
2019-04-23T10:39:03.562Z,4.12
2019-04-23T10:41:30.154Z,3.50
2019-04-23T10:44:00.863Z,3.90
2019-04-23T10:46:53.157Z,4.33
2019-04-23T10:54:41.249Z,4.37
2019-04-23T10:57:03.940Z,3.22
2019-04-23T10:59:43.250Z,3.14
2019-04-23T11:02:35.849Z,3.42
2019-04-23T11:07:28.507Z,4.28
2019-04-23T11:10:50.196Z,3.55
2019-04-23T11:15:10.526Z,2.93
2019-04-23T11:17:33.206Z,3.58
2019-04-23T11:20:07.900Z,2.70
2019-04-23T11:22:42.295Z,2.70
2019-04-23T11:24:59.440Z,2.77
2019-04-23T11:30:10.066Z,1.98
2019-04-23T11:32:47.205Z,1.60
2019-04-23T11:35:11.537Z,1.90
2019-04-23T11:37:41.196Z,2.65
2019-04-23T11:40:09.190Z,2.30
2019-04-23T11:42:38.971Z,2.62
2019-04-23T11:45:06.313Z,2.08
2019-04-23T11:50:24.189Z,2.25
2019-04-23T11:55:26.203Z,2.80
2019-04-23T11:57:54.953Z,2.65
2019-04-23T12:00:15.734Z,2.00
2019-04-23T12:02:49.634Z,3.10
2019-04-23T12:05:26.844Z,2.90
2019-04-23T12:08:07.368Z,2.60
2019-04-23T12:13:11.874Z,2.75
2019-04-23T12:18:19.937Z,2.50
2019-04-23T12:20:57.505Z,2.53
2019-04-23T12:23:25.934Z,2.33
2019-04-23T12:25:47.549Z,2.27
2019-04-23T12:28:23.535Z,2.90
2019-04-23T12:33:31.770Z,2.95
2019-04-23T12:35:47.501Z,2.93
2019-04-23T12:38:19.179Z,2.40
2019-04-23T12:40:52.943Z,2.30
2019-04-23T12:43:23.801Z,2.30
2019-04-23T12:45:47.308Z,2.37
2019-04-23T12:55:50.445Z,2.37
2019-04-23T12:58:26.874Z,2.10
2019-04-23T13:00:55.901Z,2.63
2019-04-23T13:03:29.972Z,2.15
2019-04-23T13:05:55.429Z,1.52
2019-04-23T13:11:23.840Z,1.98
2019-04-23T13:13:38.848Z,2.47
2019-04-23T13:18:41.447Z,1.62
2019-04-23T13:21:15.900Z,2.02
2019-04-23T13:23:34.617Z,2.48
2019-04-23T13:26:04.200Z,2.58
2019-04-23T13:28:37.517Z,1.80
2019-04-23T13:31:10.557Z,1.90
2019-04-23T13:36:26.446Z,2.00
2019-04-23T13:38:54.771Z,2.13
2019-04-23T13:43:45.737Z,2.03
2019-04-23T13:46:32.695Z,1.80
2019-04-23T13:48:42.040Z,2.37
2019-04-23T13:51:20.995Z,1.55
2019-04-23T13:56:24.470Z,2.50
2019-04-23T13:58:51.857Z,1.90
2019-04-23T14:01:26.251Z,2.05
2019-04-23T14:04:01.013Z,2.13
2019-04-23T14:11:29.489Z,2.30
2019-04-23T14:16:34.124Z,1.50
2019-04-23T14:18:58.405Z,2.10
2019-04-23T14:24:11.999Z,2.17
2019-04-23T14:26:29.645Z,2.00
2019-04-23T14:29:13.018Z,2.07
2019-04-23T14:31:23.165Z,2.10
2019-04-23T14:34:11.536Z,1.70
2019-04-23T14:39:05.711Z,2.10
2019-04-23T14:44:11.352Z,1.90
2019-04-23T14:49:04.240Z,1.95
2019-04-23T14:54:17.030Z,1.52
2019-04-23T14:56:44.933Z,2.33
2019-04-23T14:59:10.631Z,2.02
2019-04-23T15:01:47.459Z,2.35
2019-04-23T15:04:10.988Z,2.05
2019-04-23T15:06:55.740Z,1.93
2019-04-23T15:09:22.990Z,2.30
2019-04-23T15:11:59.725Z,1.97
2019-04-23T15:14:19.403Z,2.20
2019-04-23T15:16:57.099Z,1.97
2019-04-23T15:24:27.972Z,1.82
2019-04-23T15:29:06.078Z,1.62
2019-04-23T15:31:55.651Z,2.50
2019-04-23T15:37:14.104Z,2.55
2019-04-23T15:42:08.111Z,1.73
2019-04-23T15:44:45.335Z,1.98
2019-04-23T15:47:01.903Z,2.20
2019-04-23T15:49:28.733Z,3.00
2019-04-23T15:54:37.146Z,1.50
2019-04-23T15:57:01.214Z,1.45
2019-04-23T16:01:42.633Z,1.35
2019-04-23T16:04:06.752Z,1.98
2019-04-23T16:06:38.521Z,1.63
2019-04-23T16:09:32.837Z,2.47
2019-04-23T16:11:59.588Z,1.57
2019-04-23T16:14:52.026Z,1.94
2019-04-23T16:17:14.087Z,2.05
2019-04-23T16:19:54.133Z,1.60
2019-04-23T16:22:18.965Z,1.80
2019-04-23T16:24:48.757Z,1.33
2019-04-23T16:32:33.128Z,1.60
2019-04-23T16:35:10.313Z,1.90
2019-04-23T16:37:28.413Z,2.27
2019-04-23T16:40:01.434Z,1.80
2019-04-23T16:45:06.343Z,1.70
2019-04-23T16:47:28.213Z,1.95
2019-04-23T16:50:04.906Z,1.73
2019-04-23T16:52:26.422Z,2.15
2019-04-23T16:54:59.264Z,1.95
2019-04-23T17:00:20.985Z,1.67
2019-04-23T17:07:24.182Z,1.62
2019-04-23T17:10:08.249Z,1.77
2019-04-23T17:12:21.095Z,1.95
2019-04-23T17:17:31.217Z,1.90
2019-04-23T17:20:08.933Z,2.23
2019-04-23T17:22:39.060Z,1.80
2019-04-23T17:25:13.769Z,1.57
2019-04-23T17:30:12.002Z,2.22
2019-04-23T17:33:02.819Z,1.77
2019-04-23T17:35:29.782Z,1.82
2019-04-23T17:38:07.674Z,1.60
2019-04-23T17:40:59.776Z,1.70
2019-04-23T17:43:35.052Z,1.75
2019-04-23T17:45:54.372Z,1.87
2019-04-23T17:48:34.483Z,1.30
2019-04-23T17:54:06.989Z,1.85
2019-04-23T17:56:40.549Z,2.00
2019-04-23T17:58:54.723Z,2.17
2019-04-23T18:01:22.593Z,1.82
2019-04-23T18:06:30.187Z,1.17
2019-04-23T18:14:00.534Z,1.57
2019-04-23T18:19:00.726Z,1.60
2019-04-23T18:21:39.327Z,1.52
2019-04-23T18:24:13.363Z,2.10
2019-04-23T18:27:00.622Z,1.72
2019-04-23T18:29:31.558Z,1.80
2019-04-23T18:32:11.354Z,1.50
2019-04-23T18:35:03.884Z,1.45
2019-04-23T18:37:17.861Z,1.50
2019-04-23T18:39:46.655Z,2.23
2019-04-23T18:42:18.235Z,1.90
2019-04-23T18:44:52.147Z,1.60
2019-04-23T18:52:30.976Z,2.37
2019-04-23T18:54:48.984Z,1.70
2019-04-23T18:57:12.902Z,1.35
2019-04-23T19:02:37.283Z,1.65
2019-04-23T19:05:28.958Z,2.03
2019-04-23T19:08:01.042Z,1.84
2019-04-23T19:10:30.724Z,2.10
2019-04-23T19:13:14.160Z,1.50
2019-04-23T19:15:38.315Z,1.98
2019-04-23T19:18:04.478Z,1.47
2019-04-23T19:20:53.403Z,1.80
2019-04-23T19:23:16.500Z,1.80
2019-04-23T19:25:57.743Z,2.10
2019-04-23T19:29:43.905Z,2.47
2019-04-23T19:37:02.400Z,2.10
2019-04-23T19:39:36.781Z,2.17
2019-04-23T19:47:17.107Z,2.00
2019-04-23T19:52:47.769Z,2.00
2019-04-23T19:54:52.678Z,1.50
2019-04-23T19:57:12.038Z,1.80
2019-04-23T20:02:17.477Z,1.40
2019-04-23T20:04:45.986Z,1.30
2019-04-23T20:07:20.019Z,2.13
2019-04-23T20:14:47.704Z,1.90
2019-04-23T20:19:48.216Z,1.67
2019-04-23T20:22:25.474Z,1.43
2019-04-23T20:27:17.948Z,1.37
2019-04-23T20:31:39.362Z,1.72
2019-04-23T20:32:56.859Z,2.10
2019-04-23T20:34:59.129Z,1.67
2019-04-23T20:37:46.367Z,1.80
2019-04-23T20:42:44.562Z,1.87
2019-04-23T20:47:33.489Z,1.90
2019-04-23T20:50:03.422Z,1.70
2019-04-23T20:52:13.758Z,1.43
2019-04-23T20:55:02.040Z,1.53
2019-04-23T21:00:35.841Z,2.00
2019-04-23T21:03:16.992Z,1.80
2019-04-23T21:05:21.717Z,1.75
2019-04-23T21:07:57.947Z,2.20
2019-04-23T21:33:35.218Z,1.98
2019-04-23T21:36:13.410Z,1.30
2019-04-23T21:39:01.230Z,2.20
2019-04-23T21:46:36.522Z,1.57
2019-04-23T21:56:38.493Z,1.70
2019-04-23T22:04:15.122Z,1.73
2019-04-23T22:06:43.150Z,1.57
2019-04-23T22:09:12.419Z,1.70
2019-04-23T22:14:19.333Z,2.20
2019-04-23T22:17:01.580Z,2.33
2019-04-23T22:19:15.486Z,2.43
2019-04-23T22:21:54.463Z,2.47
2019-04-23T22:24:11.498Z,2.67
2019-04-23T22:26:58.071Z,2.50
2019-04-23T22:29:18.423Z,2.83
2019-04-23T22:31:47.262Z,2.77
2019-04-23T22:34:22.110Z,2.30
2019-04-23T22:37:01.878Z,2.70
2019-04-23T22:39:27.649Z,2.30
2019-04-23T22:44:22.326Z,2.47
2019-04-23T22:46:57.071Z,2.15
2019-04-23T22:52:06.426Z,2.27
2019-04-23T22:54:23.617Z,2.43
2019-04-23T23:02:07.408Z,1.87
2019-04-23T23:04:42.314Z,2.63
2019-04-23T23:07:10.535Z,2.03
2019-04-23T23:09:43.888Z,2.67
2019-04-23T23:12:17.664Z,2.40
2019-04-23T23:14:47.490Z,2.60
2019-04-23T23:17:11.431Z,2.07
2019-04-23T23:19:58.010Z,2.60
2019-04-23T23:22:11.940Z,2.80
2019-04-23T23:24:48.399Z,3.35
2019-04-23T23:27:30.176Z,2.33
2019-04-23T23:29:49.413Z,2.80
2019-04-23T23:32:14.604Z,2.63
2019-04-23T23:35:05.757Z,2.30
2019-04-23T23:37:16.636Z,2.40
2019-04-23T23:39:49.595Z,2.90
2019-04-23T23:42:16.212Z,2.50
2019-04-23T23:45:10.903Z,2.53
2019-04-23T23:47:29.803Z,2.70
2019-04-23T23:49:56.354Z,3.07
2019-04-23T23:52:27.009Z,3.17
2019-04-23T23:54:52.548Z,2.52
2019-04-23T23:57:23.487Z,2.30
